Time;durP1;ratioP1;P1;durP2;ratioP2;P2;SDS_P1;SDS_P2;PMS_P1;PMS_P2;Temp;Humidity;BMP_temperature;BMP_pressure;BME280_temperature;BME280_humidity;BME280_pressure;Samples;Min_cycle;Max_cycle;Signal;HPM_P1;HPM_P2
2022/09/12 00:01:22;;;;;;;3.55;3.03;;;14.40;68.40;;;;;;5068815;28;20036;-63
2022/09/12 00:03:55;;;;;;;4.70;2.83;;;14.40;68.70;;;;;;5070666;28;20103;-63
2022/09/12 00:06:26;;;;;;;9.25;2.80;;;14.40;68.80;;;;;;5087893;28;20050;-62
2022/09/12 00:09:00;;;;;;;4.15;3.08;;;14.40;68.90;;;;;;5077951;28;20112;-63
2022/09/12 00:11:27;;;;;;;4.45;2.95;;;14.30;69.00;;;;;;5070506;28;20053;-63
2022/09/12 00:13:57;;;;;;;4.45;2.50;;;14.30;68.80;;;;;;5099896;28;20025;-63
2022/09/12 00:16:25;;;;;;;2.95;2.28;;;14.30;69.00;;;;;;5068946;28;20056;-63
2022/09/12 00:18:52;;;;;;;6.03;2.67;;;14.30;68.80;;;;;;5088608;28;20043;-64
2022/09/12 00:21:19;;;;;;;4.38;2.50;;;14.30;68.80;;;;;;5072477;28;20029;-63
2022/09/12 00:23:45;;;;;;;5.85;2.78;;;14.30;68.80;;;;;;5074255;28;20017;-63
2022/09/12 00:26:12;;;;;;;3.70;2.75;;;14.30;68.80;;;;;;5071639;28;20033;-63
2022/09/12 00:28:39;;;;;;;4.05;2.58;;;14.30;68.90;;;;;;5090555;28;20025;-63
2022/09/12 00:31:09;;;;;;;5.85;3.75;;;14.20;68.90;;;;;;5079308;28;20059;-63
2022/09/12 00:33:35;;;;;;;3.35;3.00;;;14.20;69.10;;;;;;5091286;28;20021;-64
2022/09/12 00:36:06;;;;;;;3.50;2.90;;;14.20;69.20;;;;;;5083903;28;20050;-63
2022/09/12 00:38:32;;;;;;;5.75;3.50;;;14.10;69.40;;;;;;5100081;28;20064;-63
2022/09/12 00:40:58;;;;;;;3.85;3.20;;;14.10;69.30;;;;;;5080280;28;20029;-62
2022/09/12 00:43:58;;;;;;;5.68;3.50;;;14.10;69.50;;;;;;5099547;28;20029;-62
2022/09/12 00:46:36;;;;;;;6.63;3.20;;;14.10;70.30;;;;;;5065784;28;20041;-62
2022/09/12 00:49:10;;;;;;;3.65;3.17;;;14.00;69.30;;;;;;5093214;28;20032;-61
2022/09/12 00:51:37;;;;;;;5.90;2.92;;;14.00;69.80;;;;;;5091004;28;20028;-63
2022/09/12 00:54:09;;;;;;;3.65;2.65;;;13.90;69.80;;;;;;5095549;28;20024;-63
2022/09/12 00:56:37;;;;;;;8.38;3.00;;;13.90;70.10;;;;;;5088086;28;20036;-64
2022/09/12 00:59:20;;;;;;;3.00;2.70;;;13.80;70.10;;;;;;5080292;28;20056;-62
2022/09/12 01:01:48;;;;;;;3.15;2.72;;;13.80;71.00;;;;;;5070932;28;20037;-62
2022/09/12 01:04:16;;;;;;;2.30;2.13;;;13.70;70.40;;;;;;5094830;28;20024;-63
2022/09/12 01:06:44;;;;;;;3.42;2.40;;;13.70;70.60;;;;;;5107078;28;20028;-64
2022/09/12 01:09:13;;;;;;;2.83;2.47;;;13.70;71.60;;;;;;5094959;28;20032;-63
2022/09/12 01:11:40;;;;;;;6.47;2.53;;;13.60;70.90;;;;;;5110236;28;20016;-63
2022/09/12 01:14:06;;;;;;;3.03;2.72;;;13.60;70.70;;;;;;5090811;28;20063;-62
2022/09/12 01:16:37;;;;;;;4.10;2.90;;;13.60;70.60;;;;;;5091271;28;20052;-63
2022/09/12 01:19:38;;;;;;;3.53;3.20;;;13.60;70.70;;;;;;5071205;28;20548;-62
2022/09/12 01:22:41;;;;;;;4.60;2.72;;;13.60;71.00;;;;;;5105100;28;20606;-62
2022/09/12 01:25:18;;;;;;;6.53;2.80;;;13.60;70.70;;;;;;5082498;28;20029;-63
2022/09/12 01:27:56;;;;;;;3.67;2.60;;;13.60;70.30;;;;;;5070316;28;20037;-62
2022/09/12 01:30:46;;;;;;;3.83;3.08;;;13.60;70.50;;;;;;5090865;28;20051;-62
2022/09/12 01:33:18;;;;;;;3.53;2.50;;;13.60;70.80;;;;;;5091373;28;20048;-62
2022/09/12 01:35:57;;;;;;;3.30;2.90;;;13.60;70.10;;;;;;5083218;28;20075;-62
2022/09/12 01:38:33;;;;;;;4.57;2.42;;;13.60;70.50;;;;;;5067752;28;20037;-63
2022/09/12 01:41:17;;;;;;;3.63;2.50;;;13.60;70.10;;;;;;5079984;28;20107;-63
2022/09/12 01:43:50;;;;;;;14.38;2.83;;;13.60;70.50;;;;;;5098628;28;20087;-62
2022/09/12 01:46:18;;;;;;;4.38;2.55;;;13.50;70.00;;;;;;5079519;28;20036;-62
2022/09/12 01:48:59;;;;;;;4.25;2.42;;;13.50;69.70;;;;;;5095988;28;20054;-62
2022/09/12 01:51:31;;;;;;;2.97;2.47;;;13.50;70.20;;;;;;5085658;28;20101;-62
2022/09/12 01:54:07;;;;;;;5.20;2.80;;;13.50;69.90;;;;;;5075347;28;20067;-62
2022/09/12 01:56:35;;;;;;;3.05;2.53;;;13.50;70.00;;;;;;5078057;28;20055;-63
2022/09/12 01:59:31;;;;;;;2.85;2.65;;;13.50;69.60;;;;;;5111235;28;20055;-63
2022/09/12 02:02:09;;;;;;;3.15;2.83;;;13.40;69.80;;;;;;5089047;28;20016;-63
2022/09/12 02:04:41;;;;;;;2.97;2.67;;;13.40;69.60;;;;;;5078605;28;20028;-63
2022/09/12 02:07:15;;;;;;;3.28;2.42;;;13.40;69.40;;;;;;5071235;28;20036;-63
2022/09/12 02:09:55;;;;;;;2.80;2.60;;;13.40;69.60;;;;;;5072795;28;20055;-63
2022/09/12 02:12:28;;;;;;;2.75;2.50;;;13.40;70.20;;;;;;5067558;28;20025;-62
2022/09/12 02:15:00;;;;;;;6.10;2.70;;;13.40;70.10;;;;;;5077453;28;20078;-62
2022/09/12 02:17:28;;;;;;;4.05;2.63;;;13.30;70.20;;;;;;5081495;28;20103;-62
2022/09/12 02:20:01;;;;;;;6.32;3.22;;;13.40;70.10;;;;;;5108240;28;20032;-62
2022/09/12 02:22:30;;;;;;;5.15;3.22;;;13.30;69.90;;;;;;5090671;28;20063;-63
2022/09/12 02:25:01;;;;;;;3.15;2.88;;;13.30;70.00;;;;;;5105338;28;20028;-61
2022/09/12 02:27:37;;;;;;;3.30;3.00;;;13.30;70.10;;;;;;5082231;28;20020;-63
2022/09/12 02:30:05;;;;;;;4.43;3.60;;;13.30;70.10;;;;;;5084920;28;20024;-63
2022/09/12 02:32:44;;;;;;;3.88;3.17;;;13.30;70.00;;;;;;5071180;28;20051;-62
2022/09/12 02:35:30;;;;;;;10.18;3.03;;;13.30;70.10;;;;;;5087743;28;20031;-62
2022/09/12 02:38:01;;;;;;;2.90;2.47;;;13.20;70.10;;;;;;5070602;28;20056;-62
2022/09/12 02:40:28;;;;;;;3.08;2.50;;;13.20;69.70;;;;;;5087030;28;20525;-62
2022/09/12 02:42:54;;;;;;;5.32;3.00;;;13.20;69.70;;;;;;5075493;28;20104;-62
2022/09/12 02:45:21;;;;;;;4.22;2.88;;;13.20;69.80;;;;;;5093527;28;20021;-62
2022/09/12 02:47:56;;;;;;;3.40;3.10;;;13.20;69.90;;;;;;5078391;28;20088;-62
2022/09/12 02:50:22;;;;;;;4.03;2.78;;;13.10;69.90;;;;;;4999580;28;20086;-62
2022/09/12 02:52:49;;;;;;;2.90;2.47;;;13.10;69.80;;;;;;5084276;28;20038;-62
2022/09/12 02:55:15;;;;;;;4.28;2.95;;;13.10;69.80;;;;;;5089864;28;20033;-63
2022/09/12 02:57:41;;;;;;;5.93;2.53;;;13.10;69.90;;;;;;5072781;28;20081;-62
2022/09/12 03:00:07;;;;;;;3.03;2.60;;;13.00;69.80;;;;;;5095036;28;20054;-62
2022/09/12 03:03:08;;;;;;;5.55;3.30;;;13.10;69.90;;;;;;5090640;28;20051;-62
2022/09/12 03:05:56;;;;;;;2.90;2.65;;;13.10;70.50;;;;;;5077865;28;20084;-62
2022/09/12 03:08:55;;;;;;;7.93;2.72;;;13.00;70.20;;;;;;5083853;28;20028;-62
2022/09/12 03:11:55;;;;;;;4.93;2.40;;;13.00;70.10;;;;;;5087418;28;20055;-62
2022/09/12 03:14:48;;;;;;;2.40;2.20;;;13.00;70.30;;;;;;5087022;28;20037;-62
2022/09/12 03:17:41;;;;;;;2.88;2.45;;;13.00;70.30;;;;;;5088705;28;20058;-63
2022/09/12 03:20:10;;;;;;;2.85;2.20;;;13.00;70.30;;;;;;5089007;28;20028;-62
2022/09/12 03:22:46;;;;;;;2.35;2.15;;;12.90;69.90;;;;;;5088739;28;20025;-63
2022/09/12 03:25:15;;;;;;;7.15;2.55;;;12.90;70.00;;;;;;5075559;28;20053;-62
2022/09/12 03:27:47;;;;;;;2.55;2.35;;;12.90;70.10;;;;;;5087676;28;20059;-62
2022/09/12 03:30:13;;;;;;;3.35;2.58;;;12.90;70.30;;;;;;5085998;28;20029;-62
2022/09/12 03:32:46;;;;;;;3.45;2.72;;;12.90;70.10;;;;;;5090058;28;20102;-63
2022/09/12 03:35:13;;;;;;;2.47;2.22;;;12.80;70.30;;;;;;5085369;28;20069;-62
2022/09/12 03:37:39;;;;;;;3.13;2.40;;;12.80;70.30;;;;;;5088981;28;20029;-62
2022/09/12 03:40:05;;;;;;;7.05;2.45;;;12.80;70.30;;;;;;5089733;28;20036;-62
2022/09/12 03:42:31;;;;;;;2.63;2.20;;;12.80;70.30;;;;;;5099027;28;20032;-63
2022/09/12 03:44:57;;;;;;;3.42;2.67;;;12.80;70.30;;;;;;5085690;28;20033;-63
2022/09/12 03:47:22;;;;;;;2.53;2.33;;;12.70;70.30;;;;;;5077708;28;20033;-63
2022/09/12 03:49:48;;;;;;;2.70;2.50;;;12.70;70.30;;;;;;5100157;28;20063;-62
2022/09/12 03:52:14;;;;;;;14.48;2.88;;;12.70;70.40;;;;;;5076428;28;20101;-62
2022/09/12 03:54:39;;;;;;;5.55;2.97;;;12.70;70.40;;;;;;5091483;28;20048;-62
2022/09/12 03:57:05;;;;;;;4.35;2.60;;;12.70;70.40;;;;;;5102808;28;20037;-62
2022/09/12 03:59:31;;;;;;;4.78;2.90;;;12.70;70.40;;;;;;5112046;28;20123;-61
2022/09/12 04:01:57;;;;;;;2.80;2.58;;;12.70;70.30;;;;;;5093765;28;20029;-62
2022/09/12 04:04:22;;;;;;;4.55;2.80;;;12.70;70.20;;;;;;5082936;28;20025;-63
2022/09/12 04:06:48;;;;;;;2.97;2.67;;;12.70;70.30;;;;;;5091335;28;20060;-63
2022/09/12 04:09:14;;;;;;;3.17;2.45;;;12.60;70.20;;;;;;5110591;28;20036;-63
2022/09/12 04:11:39;;;;;;;3.33;2.40;;;12.70;70.30;;;;;;5080450;28;20033;-62
2022/09/12 04:14:05;;;;;;;3.70;2.80;;;12.60;70.30;;;;;;5081229;28;20067;-62
2022/09/12 04:16:31;;;;;;;3.75;2.80;;;12.60;70.40;;;;;;5087601;28;20025;-62
2022/09/12 04:18:57;;;;;;;3.83;2.83;;;12.60;70.50;;;;;;5068252;28;20044;-62
2022/09/12 04:21:23;;;;;;;3.00;2.70;;;12.60;70.50;;;;;;5087352;28;20115;-62
2022/09/12 04:23:50;;;;;;;6.32;3.03;;;12.50;70.60;;;;;;5114692;27;20020;-62
2022/09/12 04:26:17;;;;;;;4.65;3.25;;;12.50;70.60;;;;;;5093256;28;20021;-61
2022/09/12 04:28:45;;;;;;;3.42;3.13;;;12.50;70.60;;;;;;5090275;28;20036;-62
2022/09/12 04:31:14;;;;;;;4.13;3.47;;;12.50;70.60;;;;;;5084038;28;20045;-62
2022/09/12 04:33:40;;;;;;;4.20;3.33;;;12.50;70.50;;;;;;5095286;28;20052;-62
2022/09/12 04:36:13;;;;;;;3.70;3.40;;;12.50;70.40;;;;;;5099330;28;20025;-62
2022/09/12 04:38:39;;;;;;;6.65;3.70;;;12.50;71.10;;;;;;5068537;28;20072;-62
2022/09/12 04:41:14;;;;;;;4.85;3.35;;;12.50;70.40;;;;;;5101712;28;20031;-61
2022/09/12 04:43:41;;;;;;;3.80;3.40;;;12.40;70.60;;;;;;5073627;28;20025;-63
2022/09/12 04:46:09;;;;;;;3.80;3.33;;;12.40;70.30;;;;;;5090922;28;20084;-63
2022/09/12 04:48:35;;;;;;;5.07;3.33;;;12.40;70.50;;;;;;5086202;28;20024;-63
2022/09/12 04:51:07;;;;;;;3.75;3.40;;;12.40;70.50;;;;;;5084509;28;20028;-63
2022/09/12 04:53:33;;;;;;;4.13;3.35;;;12.40;70.60;;;;;;5085487;28;20459;-62
2022/09/12 04:56:08;;;;;;;4.80;3.22;;;12.40;70.40;;;;;;5104078;28;20031;-63
2022/09/12 04:58:35;;;;;;;4.65;3.10;;;12.40;70.70;;;;;;5089835;28;20036;-63
2022/09/12 05:01:08;;;;;;;3.75;3.35;;;12.40;70.50;;;;;;5102925;28;20036;-61
2022/09/12 05:03:37;;;;;;;3.85;3.45;;;12.40;70.70;;;;;;5070648;28;20037;-62
2022/09/12 05:06:05;;;;;;;4.00;3.30;;;12.40;70.50;;;;;;5106121;28;20031;-63
2022/09/12 05:08:31;;;;;;;4.35;3.40;;;12.30;70.60;;;;;;5069332;28;20044;-62
2022/09/12 05:11:03;;;;;;;5.22;3.67;;;12.40;70.60;;;;;;5091641;28;20047;-62
2022/09/12 05:13:30;;;;;;;3.90;3.40;;;12.40;70.60;;;;;;5073670;28;20029;-61
2022/09/12 05:15:57;;;;;;;7.95;3.65;;;12.30;70.40;;;;;;5090354;28;20020;-62
2022/09/12 05:18:23;;;;;;;4.43;3.70;;;12.30;70.40;;;;;;5086888;28;20096;-62
2022/09/12 05:20:49;;;;;;;3.33;3.03;;;12.30;70.40;;;;;;5097333;28;20052;-63
2022/09/12 05:23:14;;;;;;;8.80;3.80;;;12.30;70.30;;;;;;5080171;28;20048;-63
2022/09/12 05:25:51;;;;;;;7.53;3.25;;;12.30;70.20;;;;;;5091367;28;20024;-62
2022/09/12 05:28:17;;;;;;;5.40;2.92;;;12.30;70.50;;;;;;5089108;28;20092;-62
2022/09/12 05:30:43;;;;;;;4.53;2.80;;;12.30;70.50;;;;;;5097483;28;20021;-63
2022/09/12 05:33:10;;;;;;;3.13;2.75;;;12.40;70.80;;;;;;5088534;28;20444;-62
2022/09/12 05:35:37;;;;;;;3.58;2.72;;;12.40;70.90;;;;;;5105265;28;20047;-62
2022/09/12 05:38:03;;;;;;;3.22;2.92;;;12.40;71.20;;;;;;5084882;28;20096;-62
2022/09/12 05:40:29;;;;;;;3.03;2.50;;;12.50;71.20;;;;;;5094749;28;20111;-62
2022/09/12 05:42:55;;;;;;;3.15;2.30;;;12.50;71.20;;;;;;5082678;28;20021;-62
2022/09/12 05:45:21;;;;;;;3.13;2.50;;;12.60;71.20;;;;;;5092408;28;20482;-62
2022/09/12 05:47:47;;;;;;;2.90;2.60;;;12.60;71.10;;;;;;5083449;28;20427;-63
2022/09/12 05:50:12;;;;;;;3.13;2.35;;;12.70;71.10;;;;;;5096361;28;20092;-60
2022/09/12 05:52:38;;;;;;;2.60;2.15;;;12.70;71.10;;;;;;5087778;28;20032;-62
2022/09/12 05:55:04;;;;;;;2.92;2.60;;;12.80;71.20;;;;;;5105153;28;20062;-62
2022/09/12 05:57:32;;;;;;;3.22;2.78;;;12.90;71.10;;;;;;5090268;28;20066;-61
2022/09/12 05:59:57;;;;;;;5.95;2.72;;;12.90;71.10;;;;;;5105754;28;20028;-62
2022/09/12 06:02:23;;;;;;;3.03;2.72;;;13.00;71.20;;;;;;5077226;28;20029;-61
2022/09/12 06:04:49;;;;;;;3.53;3.00;;;13.10;71.20;;;;;;5094470;28;20053;-62
2022/09/12 06:07:14;;;;;;;5.85;2.60;;;13.20;71.30;;;;;;5092532;28;20096;-61
2022/09/12 06:09:40;;;;;;;3.15;2.60;;;13.30;71.20;;;;;;5084712;28;20084;-61
2022/09/12 06:12:07;;;;;;;3.08;2.78;;;13.40;71.10;;;;;;5081170;28;20088;-61
2022/09/12 06:14:33;;;;;;;4.22;2.28;;;13.50;71.10;;;;;;5079706;28;20028;-61
2022/09/12 06:16:59;;;;;;;3.80;2.60;;;13.60;72.30;;;;;;5086941;28;20028;-62
2022/09/12 06:19:26;;;;;;;5.68;2.85;;;13.80;74.00;;;;;;5085317;28;20045;-62
2022/09/12 06:21:52;;;;;;;8.70;3.30;;;14.00;73.10;;;;;;5073567;28;20032;-62
2022/09/12 06:24:19;;;;;;;3.30;3.00;;;14.10;71.70;;;;;;5086028;28;20028;-61
2022/09/12 06:26:46;;;;;;;3.03;2.72;;;14.30;70.90;;;;;;5078969;28;20033;-60
2022/09/12 06:29:12;;;;;;;3.22;2.72;;;14.40;70.30;;;;;;5081944;28;20092;-61
2022/09/12 06:31:40;;;;;;;3.00;2.53;;;14.50;70.00;;;;;;5079937;28;20048;-62
2022/09/12 06:34:07;;;;;;;3.30;2.80;;;14.60;70.40;;;;;;5079936;28;20375;-61
2022/09/12 06:36:37;;;;;;;4.22;2.85;;;14.70;71.00;;;;;;5077746;28;20048;-60
2022/09/12 06:39:10;;;;;;;6.03;2.65;;;14.80;71.00;;;;;;5079871;28;20048;-62
2022/09/12 06:41:36;;;;;;;3.60;2.93;;;15.00;70.70;;;;;;5069788;28;20020;-60
2022/09/12 06:44:02;;;;;;;5.05;2.70;;;15.20;70.20;;;;;;5078558;28;20040;-60
2022/09/12 06:46:29;;;;;;;6.68;3.45;;;15.30;70.10;;;;;;5093640;28;20103;-61
2022/09/12 06:48:56;;;;;;;5.88;3.20;;;15.40;70.30;;;;;;5088667;28;20020;-60
2022/09/12 06:51:22;;;;;;;3.80;2.83;;;15.50;69.40;;;;;;5061511;28;20021;-62
2022/09/12 06:53:49;;;;;;;3.70;3.30;;;15.70;69.30;;;;;;5073894;28;20028;-60
2022/09/12 06:56:19;;;;;;;7.18;3.08;;;15.80;68.90;;;;;;5067532;28;20036;-61
2022/09/12 06:58:46;;;;;;;6.47;2.90;;;16.00;68.50;;;;;;5088864;28;20049;-61
2022/09/12 07:01:20;;;;;;;4.18;3.00;;;16.10;68.30;;;;;;5085939;28;20051;-62
2022/09/12 07:03:51;;;;;;;5.40;2.72;;;16.20;67.90;;;;;;5063657;28;20051;-61
2022/09/12 07:06:19;;;;;;;13.45;2.85;;;16.40;67.90;;;;;;5082382;28;20036;-61
2022/09/12 07:08:46;;;;;;;7.97;3.08;;;16.50;67.90;;;;;;5092874;28;20036;-60
2022/09/12 07:11:19;;;;;;;7.15;3.20;;;16.50;67.80;;;;;;5087455;28;20029;-60
2022/09/12 07:13:48;;;;;;;4.75;3.60;;;16.60;67.50;;;;;;5080983;28;20029;-61
2022/09/12 07:16:15;;;;;;;3.60;3.30;;;16.80;67.50;;;;;;5089572;28;20024;-61
2022/09/12 07:18:41;;;;;;;8.38;3.35;;;16.90;67.30;;;;;;5073585;28;20037;-62
2022/09/12 07:21:10;;;;;;;8.73;3.25;;;17.00;67.00;;;;;;5095885;28;20098;-63
2022/09/12 07:23:36;;;;;;;5.45;3.10;;;17.10;66.70;;;;;;5093034;28;20028;-60
2022/09/12 07:26:03;;;;;;;8.85;3.25;;;17.20;66.90;;;;;;5064779;28;20450;-61
2022/09/12 07:28:33;;;;;;;4.25;3.15;;;17.30;66.80;;;;;;5088216;28;20084;-61
2022/09/12 07:31:05;;;;;;;4.22;3.67;;;17.40;66.40;;;;;;5102165;28;20032;-62
2022/09/12 07:33:31;;;;;;;4.80;3.78;;;17.50;66.30;;;;;;5082662;28;20013;-61
2022/09/12 07:36:05;;;;;;;5.10;4.22;;;17.60;66.40;;;;;;5077243;28;20050;-61
2022/09/12 07:38:31;;;;;;;5.38;4.00;;;17.70;66.00;;;;;;5075884;28;20041;-61
2022/09/12 07:40:56;;;;;;;5.78;3.97;;;17.80;66.10;;;;;;5088425;28;20024;-63
2022/09/12 07:43:24;;;;;;;5.47;4.57;;;17.80;65.90;;;;;;5087752;28;20043;-61
2022/09/12 07:45:55;;;;;;;9.20;5.50;;;17.90;65.70;;;;;;5095528;28;20089;-62
2022/09/12 07:48:20;;;;;;;7.70;5.32;;;18.00;65.60;;;;;;5096965;28;20061;-62
2022/09/12 07:50:46;;;;;;;9.70;5.80;;;18.10;65.70;;;;;;5074766;28;20024;-61
2022/09/12 07:53:12;;;;;;;8.55;5.50;;;18.20;65.70;;;;;;5102360;28;20103;-61
2022/09/12 07:55:38;;;;;;;12.02;5.47;;;18.30;65.70;;;;;;5101534;28;20028;-62
2022/09/12 07:58:04;;;;;;;7.95;6.15;;;18.40;65.60;;;;;;5080457;28;20033;-61
2022/09/12 08:00:34;;;;;;;9.63;6.63;;;18.50;65.30;;;;;;5103211;28;20032;-61
2022/09/12 08:03:01;;;;;;;8.77;5.90;;;18.50;65.10;;;;;;5075228;28;20028;-61
2022/09/12 08:05:27;;;;;;;8.10;5.82;;;18.60;65.10;;;;;;5102708;28;20039;-61
2022/09/12 08:07:53;;;;;;;7.80;6.22;;;18.60;65.00;;;;;;5064843;28;20033;-60
2022/09/12 08:10:18;;;;;;;8.57;6.25;;;18.60;64.70;;;;;;5076613;28;20650;-61
2022/09/12 08:12:44;;;;;;;13.65;5.88;;;18.50;64.60;;;;;;5084055;28;20033;-61
2022/09/12 08:15:10;;;;;;;9.27;5.75;;;18.40;64.50;;;;;;5090839;28;20024;-61
2022/09/12 08:17:35;;;;;;;9.13;5.78;;;18.40;64.40;;;;;;5088709;28;20472;-61
2022/09/12 08:20:01;;;;;;;8.75;5.72;;;18.20;65.00;;;;;;5108546;28;20057;-63
2022/09/12 08:22:29;;;;;;;9.85;5.30;;;18.10;65.50;;;;;;5089430;28;20340;-62
2022/09/12 08:24:55;;;;;;;9.40;6.38;;;18.00;66.10;;;;;;5108202;28;20043;-61
2022/09/12 08:27:21;;;;;;;10.60;6.45;;;18.00;66.60;;;;;;5078367;28;20029;-62
2022/09/12 08:29:46;;;;;;;8.57;6.85;;;18.00;66.60;;;;;;5107196;28;20485;-61
2022/09/12 08:32:12;;;;;;;8.30;6.05;;;18.00;66.60;;;;;;5084655;28;20055;-62
2022/09/12 08:34:37;;;;;;;8.10;6.10;;;18.10;67.00;;;;;;5078800;28;20033;-61
2022/09/12 08:37:04;;;;;;;7.53;5.85;;;18.10;67.10;;;;;;5081020;28;20414;-61
2022/09/12 08:39:31;;;;;;;10.35;5.80;;;18.10;66.80;;;;;;5077092;28;20054;-62
2022/09/12 08:42:05;;;;;;;9.63;5.97;;;18.20;67.10;;;;;;5087183;28;20052;-60
2022/09/12 08:44:55;;;;;;;6.95;5.07;;;18.20;67.70;;;;;;5082371;28;20025;-61
2022/09/12 08:47:35;;;;;;;7.28;5.47;;;18.40;67.80;;;;;;5086773;28;20032;-61
2022/09/12 08:50:06;;;;;;;8.40;6.15;;;18.50;68.70;;;;;;5077736;28;20025;-61
2022/09/12 08:52:51;;;;;;;7.82;5.55;;;18.70;68.00;;;;;;5082933;28;20080;-61
2022/09/12 08:55:30;;;;;;;;;;;18.90;67.90;;;;;;5079938;28;20024;-61
2022/09/12 08:57:56;;;;;;;11.30;5.45;;;19.10;67.40;;;;;;5086341;28;20586;-62
2022/09/12 09:00:22;;;;;;;6.30;5.65;;;19.30;67.00;;;;;;5082312;28;20033;-62
2022/09/12 09:03:15;;;;;;;7.30;5.50;;;19.40;66.90;;;;;;5083178;28;20063;-61
2022/09/12 09:05:46;;;;;;;8.10;4.75;;;19.60;66.90;;;;;;5075847;28;20025;-62
2022/09/12 09:08:41;;;;;;;7.38;4.80;;;19.70;66.60;;;;;;5075273;28;20045;-61
2022/09/12 09:11:22;;;;;;;6.65;4.97;;;19.80;66.30;;;;;;5060815;28;20074;-62
2022/09/12 09:16:51;;;;;;;8.35;5.53;;;20.20;65.20;;;;;;5064661;28;20118;-61
2022/09/12 09:19:33;;;;;;;8.63;4.60;;;20.40;65.10;;;;;;5084450;28;20048;-61
2022/09/12 09:22:05;;;;;;;5.75;3.95;;;20.50;64.20;;;;;;5053812;28;20068;-62
2022/09/12 09:24:44;;;;;;;9.13;4.95;;;20.60;64.30;;;;;;5047728;28;20032;-61
2022/09/12 09:27:21;;;;;;;4.25;3.80;;;20.70;63.30;;;;;;5053970;28;20071;-62
2022/09/12 09:29:52;;;;;;;6.85;3.45;;;20.90;63.60;;;;;;5084148;28;20089;-63
2022/09/12 09:32:25;;;;;;;5.50;3.70;;;21.00;63.20;;;;;;5056410;28;20063;-63
2022/09/12 09:34:51;;;;;;;4.15;3.08;;;21.10;63.10;;;;;;5027776;28;20033;-61
2022/09/12 09:37:38;;;;;;;5.47;2.88;;;21.30;63.10;;;;;;5081930;28;20028;-61
2022/09/12 09:40:26;;;;;;;4.70;3.53;;;21.40;62.30;;;;;;5044547;28;20033;-61
2022/09/12 09:43:19;;;;;;;2.92;2.63;;;21.50;61.90;;;;;;5043655;28;20080;-61
2022/09/12 09:45:44;;;;;;;3.83;2.67;;;21.70;61.20;;;;;;5084377;28;20071;-62
2022/09/12 09:48:33;;;;;;;2.72;2.35;;;21.80;61.70;;;;;;5062367;28;20045;-63
2022/09/12 09:51:02;;;;;;;3.05;2.22;;;22.00;60.40;;;;;;5091266;28;20036;-62
2022/09/12 09:53:35;;;;;;;2.88;2.33;;;22.10;60.80;;;;;;5088500;28;20082;-61
2022/09/12 09:56:06;;;;;;;3.92;2.15;;;22.20;60.50;;;;;;5074522;28;20032;-62
2022/09/12 09:58:33;;;;;;;2.75;2.10;;;22.30;60.30;;;;;;5089234;28;20063;-62
2022/09/12 10:01:14;;;;;;;1.58;1.48;;;22.40;59.90;;;;;;5091342;28;20048;-61
2022/09/12 10:03:46;;;;;;;1.75;1.60;;;22.60;59.10;;;;;;5073526;28;20017;-62
2022/09/12 10:06:24;;;;;;;2.25;1.50;;;22.70;59.10;;;;;;5072770;28;20063;-62
2022/09/12 10:08:50;;;;;;;1.65;1.42;;;22.90;58.90;;;;;;5078863;28;20025;-62
2022/09/12 10:11:15;;;;;;;4.05;1.45;;;22.90;58.00;;;;;;5108164;28;20975;-62
2022/09/12 10:13:51;;;;;;;3.05;1.23;;;23.10;58.10;;;;;;5098019;28;20046;-61
2022/09/12 10:16:33;;;;;;;1.40;1.30;;;23.30;57.90;;;;;;5076689;28;20032;-63
2022/09/12 10:19:00;;;;;;;4.00;1.40;;;23.40;56.50;;;;;;5088319;28;20178;-61
2022/09/12 10:21:34;;;;;;;3.22;1.10;;;23.50;57.00;;;;;;5096716;28;20025;-63
2022/09/12 10:24:05;;;;;;;3.22;1.42;;;23.60;57.00;;;;;;5086008;28;20036;-62
2022/09/12 10:26:34;;;;;;;5.13;1.38;;;23.70;56.50;;;;;;5071358;28;20051;-62
2022/09/12 10:29:14;;;;;;;3.85;1.58;;;23.80;56.40;;;;;;5095663;28;20066;-61
2022/09/12 10:32:02;;;;;;;4.38;1.67;;;23.90;56.10;;;;;;5080822;28;20080;-61
2022/09/12 10:34:36;;;;;;;2.45;1.58;;;24.00;54.50;;;;;;5085294;28;20024;-62
2022/09/12 10:37:07;;;;;;;4.40;1.45;;;24.00;54.50;;;;;;5079828;28;20031;-62
2022/09/12 10:39:36;;;;;;;1.80;1.30;;;24.10;55.00;;;;;;5076104;28;20036;-61
2022/09/12 10:42:04;;;;;;;1.55;1.30;;;24.20;55.40;;;;;;5085873;28;20056;-63
2022/09/12 10:44:32;;;;;;;2.55;1.70;;;24.20;55.30;;;;;;5091841;28;20028;-62
2022/09/12 10:46:59;;;;;;;2.08;1.58;;;24.30;54.70;;;;;;5070851;28;20028;-61
2022/09/12 10:49:26;;;;;;;1.83;1.23;;;24.40;54.10;;;;;;5092002;28;20031;-62
2022/09/12 10:51:53;;;;;;;1.52;1.20;;;24.50;54.20;;;;;;5081727;28;20020;-63
2022/09/12 10:54:23;;;;;;;2.60;1.30;;;24.60;53.90;;;;;;5086791;28;20777;-61
2022/09/12 10:57:08;;;;;;;4.03;1.40;;;24.70;53.70;;;;;;5079295;28;20111;-62
2022/09/12 10:59:52;;;;;;;;;;;24.80;52.00;;;;;;5079018;28;20040;-62
2022/09/12 11:02:28;;;;;;;1.15;1.10;;;24.90;53.80;;;;;;5075468;28;20007;-62
2022/09/12 11:05:13;;;;;;;1.85;1.15;;;25.00;52.10;;;;;;5082039;28;20021;-62
2022/09/12 11:07:54;;;;;;;1.70;1.13;;;25.00;52.40;;;;;;5077753;28;20364;-62
2022/09/12 11:10:38;;;;;;;1.40;1.30;;;25.10;51.60;;;;;;5083602;28;20032;-61
2022/09/12 11:13:28;;;;;;;3.85;1.27;;;25.20;51.20;;;;;;5074800;28;20095;-63
2022/09/12 11:16:11;;;;;;;1.40;1.13;;;25.20;51.40;;;;;;5083106;28;20032;-60
2022/09/12 11:19:17;;;;;;;2.17;1.30;;;25.30;51.10;;;;;;5072884;28;20037;-62
2022/09/12 11:21:54;;;;;;;3.00;1.30;;;25.30;50.60;;;;;;5075058;28;20089;-62
2022/09/12 11:24:36;;;;;;;2.08;1.17;;;25.30;50.90;;;;;;5079715;28;20025;-62
2022/09/12 11:27:27;;;;;;;1.23;1.10;;;25.30;50.10;;;;;;5079223;28;20025;-62
2022/09/12 11:30:12;;;;;;;1.50;1.40;;;25.20;49.50;;;;;;5078907;28;20036;-62
2022/09/12 11:33:00;;;;;;;2.17;1.60;;;25.30;50.90;;;;;;5085096;28;20044;-62
2022/09/12 11:35:33;;;;;;;1.90;1.42;;;25.30;50.70;;;;;;5078229;28;20056;-62
2022/09/12 11:38:18;;;;;;;1.15;1.00;;;25.30;50.80;;;;;;5073254;28;20033;-63
2022/09/12 11:40:54;;;;;;;1.20;1.15;;;25.40;51.00;;;;;;5086935;28;20025;-61
2022/09/12 11:43:40;;;;;;;1.60;1.25;;;25.40;50.50;;;;;;5081552;28;20086;-62
2022/09/12 11:46:30;;;;;;;1.73;1.40;;;25.40;51.50;;;;;;5081778;28;20032;-63
2022/09/12 11:49:05;;;;;;;2.95;1.27;;;25.60;49.70;;;;;;5077604;28;20054;-62
2022/09/12 11:51:55;;;;;;;2.60;1.17;;;25.70;50.80;;;;;;5077437;28;20028;-62
2022/09/12 11:54:40;;;;;;;1.92;1.25;;;25.70;50.30;;;;;;5088094;28;20063;-62
2022/09/12 11:57:40;;;;;;;2.13;1.60;;;25.80;49.60;;;;;;5086166;28;20036;-63
2022/09/12 12:00:41;;;;;;;1.65;1.42;;;25.90;48.60;;;;;;5070746;28;20049;-63
2022/09/12 12:03:36;;;;;;;1.42;1.08;;;26.00;48.30;;;;;;5080407;28;20029;-61
2022/09/12 12:06:04;;;;;;;;;;;26.10;48.30;;;;;;5087176;28;20033;-61
2022/09/12 12:08:36;;;;;;;1.50;1.15;;;26.10;50.60;;;;;;5074261;28;19909;-62
2022/09/12 12:11:03;;;;;;;1.52;1.00;;;26.20;49.00;;;;;;5077365;28;20074;-62
2022/09/12 12:13:42;;;;;;;6.47;1.30;;;26.30;48.50;;;;;;5085198;28;20025;-62
2022/09/12 12:16:16;;;;;;;0.95;0.90;;;26.30;48.00;;;;;;5082258;28;20080;-62
2022/09/12 12:18:42;;;;;;;2.65;1.10;;;26.40;48.00;;;;;;5086721;28;20039;-61
2022/09/12 12:21:40;;;;;;;1.00;0.90;;;26.50;48.70;;;;;;5105699;28;20788;-63
2022/09/12 12:24:08;;;;;;;1.63;0.90;;;26.60;47.10;;;;;;5084578;28;20039;-62
2022/09/12 12:26:40;;;;;;;4.82;0.90;;;26.80;46.90;;;;;;5088303;28;20020;-62
2022/09/12 12:29:39;;;;;;;2.83;0.98;;;26.90;45.40;;;;;;5082639;28;20021;-62
2022/09/12 12:32:04;;;;;;;0.80;0.80;;;27.00;45.60;;;;;;5085798;28;20128;-62
2022/09/12 12:34:34;;;;;;;1.25;0.90;;;27.10;45.80;;;;;;5086449;28;20041;-62
2022/09/12 12:37:18;;;;;;;1.42;1.20;;;27.20;45.50;;;;;;5084797;28;20077;-62
2022/09/12 12:39:46;;;;;;;3.35;1.67;;;27.20;43.70;;;;;;5068931;28;20487;-61
2022/09/12 12:42:31;;;;;;;1.48;1.10;;;27.20;45.70;;;;;;5092847;28;20043;-61
2022/09/12 12:44:58;;;;;;;1.10;0.98;;;27.30;44.90;;;;;;5105725;28;20028;-61
2022/09/12 12:47:36;;;;;;;5.97;1.08;;;27.30;44.50;;;;;;5085315;28;20062;-62
2022/09/12 12:50:20;;;;;;;1.10;0.90;;;27.30;43.70;;;;;;5075962;28;20056;-61
2022/09/12 12:53:02;;;;;;;0.80;0.80;;;27.40;44.00;;;;;;5078139;28;20096;-62
2022/09/12 12:55:51;;;;;;;1.13;0.70;;;27.40;43.90;;;;;;5069821;28;20057;-62
2022/09/12 12:58:35;;;;;;;0.98;0.80;;;27.50;43.00;;;;;;5071840;28;20090;-62
2022/09/12 13:01:16;;;;;;;1.52;1.00;;;27.50;43.10;;;;;;5067512;28;20033;-62
2022/09/12 13:03:53;;;;;;;3.45;0.70;;;27.50;42.80;;;;;;5087054;28;20055;-62
2022/09/12 13:06:35;;;;;;;1.45;1.02;;;27.50;42.90;;;;;;5076128;28;20088;-62
2022/09/12 13:09:05;;;;;;;3.17;1.20;;;27.50;42.30;;;;;;5070054;28;20527;-63
2022/09/12 13:11:37;;;;;;;1.42;0.85;;;27.50;42.80;;;;;;5091765;28;20103;-63
2022/09/12 13:14:06;;;;;;;0.80;0.80;;;27.50;42.30;;;;;;5087267;28;20021;-64
2022/09/12 13:16:32;;;;;;;1.13;0.98;;;27.50;42.10;;;;;;5092265;28;20021;-62
2022/09/12 13:19:10;;;;;;;1.92;0.98;;;27.50;41.70;;;;;;5097174;28;20037;-63